createdAt,value
2023-04-10T00:00:25.545Z,15.90
2023-04-10T00:02:30.668Z,16.00
2023-04-10T00:04:35.882Z,14.48
2023-04-10T00:06:41.876Z,15.23
2023-04-10T00:08:46.756Z,14.70
2023-04-10T00:10:54.894Z,14.48
2023-04-10T00:13:07.715Z,14.13
2023-04-10T00:15:13.655Z,13.70
2023-04-10T00:17:21.282Z,13.80
2023-04-10T00:19:26.364Z,14.45
2023-04-10T00:21:31.530Z,13.90
2023-04-10T00:25:41.448Z,12.65
2023-04-10T00:27:46.364Z,12.98
2023-04-10T00:29:51.320Z,12.60
2023-04-10T00:31:56.776Z,13.75
2023-04-10T00:34:04.435Z,14.10
2023-04-10T00:36:10.241Z,13.15
2023-04-10T00:38:16.872Z,12.80
2023-04-10T00:40:22.033Z,12.75
2023-04-10T00:42:27.229Z,12.50
2023-04-10T00:44:32.403Z,13.57
2023-04-10T00:46:37.690Z,12.95
2023-04-10T00:48:43.358Z,12.30
2023-04-10T00:50:51.897Z,13.80
2023-04-10T00:52:57.433Z,13.13
2023-04-10T00:55:02.382Z,13.00
2023-04-10T00:57:07.696Z,12.68
2023-04-10T01:01:18.042Z,13.63
2023-04-10T01:03:24.721Z,13.98
2023-04-10T01:05:34.935Z,12.52
2023-04-10T01:08:05.969Z,13.10
2023-04-10T01:10:20.960Z,12.05
2023-04-10T01:12:41.678Z,11.77
2023-04-10T01:15:02.114Z,13.10
2023-04-10T01:17:12.030Z,12.63
2023-04-10T01:19:28.639Z,13.13
2023-04-10T01:21:41.060Z,11.98
2023-04-10T01:24:10.992Z,12.85
2023-04-10T01:26:19.932Z,13.43
2023-04-10T01:28:55.512Z,12.40
2023-04-10T01:31:04.025Z,13.25
2023-04-10T01:33:15.772Z,12.80
2023-04-10T01:35:21.906Z,12.32
2023-04-10T01:37:31.352Z,13.27
2023-04-10T01:39:42.177Z,11.95
2023-04-10T01:41:48.365Z,12.80
2023-04-10T01:43:57.070Z,12.30
2023-04-10T01:46:04.072Z,12.02
2023-04-10T01:48:10.485Z,12.00
2023-04-10T01:50:19.145Z,12.77
2023-04-10T01:52:24.386Z,10.82
2023-04-10T01:54:45.314Z,12.13
2023-04-10T01:56:54.694Z,12.50
2023-04-10T01:59:03.924Z,12.25
2023-04-10T02:01:19.200Z,11.80
2023-04-10T02:03:31.687Z,12.15
2023-04-10T02:07:54.136Z,12.25
2023-04-10T02:10:04.319Z,13.02
2023-04-10T02:12:12.256Z,13.75
2023-04-10T02:14:23.985Z,12.20
2023-04-10T02:16:30.702Z,11.75
2023-04-10T02:18:37.756Z,11.15
2023-04-10T02:20:42.675Z,12.27
2023-04-10T02:22:47.888Z,13.15
2023-04-10T02:26:58.037Z,13.48
2023-04-10T02:29:03.021Z,13.57
2023-04-10T02:31:10.819Z,12.90
2023-04-10T02:33:17.145Z,12.57
2023-04-10T02:35:22.385Z,13.10
2023-04-10T02:37:27.407Z,13.07
2023-04-10T02:39:32.510Z,12.45
2023-04-10T02:43:43.211Z,12.38
2023-04-10T02:48:03.462Z,12.70
2023-04-10T02:50:09.538Z,12.70
2023-04-10T02:52:17.549Z,13.75
2023-04-10T02:54:25.265Z,12.73
2023-04-10T02:56:30.601Z,12.43
2023-04-10T02:58:36.201Z,13.50
2023-04-10T03:00:41.516Z,13.13
2023-04-10T03:02:53.972Z,13.70
2023-04-10T03:05:04.008Z,13.95
2023-04-10T03:07:08.966Z,12.85
2023-04-10T03:09:16.347Z,12.07
2023-04-10T03:11:21.188Z,13.48
2023-04-10T03:13:26.274Z,13.07
2023-04-10T03:15:31.131Z,13.35
2023-04-10T03:17:36.872Z,13.77
2023-04-10T03:19:43.956Z,13.55
2023-04-10T03:21:51.939Z,12.93
2023-04-10T03:23:57.103Z,13.10
2023-04-10T03:26:02.747Z,12.80
2023-04-10T03:28:09.253Z,12.48
2023-04-10T03:30:14.735Z,12.98
2023-04-10T03:32:20.970Z,12.80
2023-04-10T03:34:25.905Z,13.18
2023-04-10T03:36:30.988Z,13.55
2023-04-10T03:38:38.732Z,14.00
2023-04-10T03:40:46.119Z,12.27
2023-04-10T03:42:51.175Z,13.05
2023-04-10T03:44:56.511Z,12.73
2023-04-10T03:47:01.508Z,13.05
2023-04-10T03:49:06.606Z,12.85
2023-04-10T03:51:12.860Z,12.65
2023-04-10T03:53:17.756Z,13.43
2023-04-10T03:55:26.522Z,13.65
2023-04-10T03:57:32.073Z,13.98
2023-04-10T03:59:41.576Z,13.80
2023-04-10T04:01:50.508Z,13.32
2023-04-10T04:06:19.304Z,14.95
2023-04-10T04:08:53.252Z,14.02
2023-04-10T04:11:19.647Z,14.02
2023-04-10T04:13:33.037Z,12.93
2023-04-10T04:15:44.919Z,12.93
2023-04-10T04:17:55.751Z,13.55
2023-04-10T04:20:19.101Z,13.95
2023-04-10T04:22:46.550Z,14.15
2023-04-10T04:25:12.457Z,12.98
2023-04-10T04:27:40.745Z,14.15
2023-04-10T04:29:59.705Z,13.23
2023-04-10T04:32:21.461Z,13.60
2023-04-10T04:34:38.219Z,12.60
2023-04-10T04:36:50.699Z,13.70
2023-04-10T04:39:13.368Z,14.48
2023-04-10T04:41:33.494Z,13.90
2023-04-10T04:43:53.692Z,14.02
2023-04-10T04:46:22.272Z,14.18
2023-04-10T04:48:34.408Z,13.93
2023-04-10T04:50:49.612Z,13.63
2023-04-10T04:53:21.243Z,13.65
2023-04-10T04:55:39.710Z,13.75
2023-04-10T04:57:56.877Z,13.82
2023-04-10T05:00:26.935Z,14.40
2023-04-10T05:02:45.141Z,14.00
2023-04-10T05:05:09.017Z,15.43
2023-04-10T05:07:29.198Z,15.05
2023-04-10T05:09:44.473Z,14.73
2023-04-10T05:11:59.046Z,14.63
2023-04-10T05:14:24.598Z,16.25
2023-04-10T05:16:40.825Z,13.63
2023-04-10T05:19:19.474Z,13.82
2023-04-10T05:21:43.266Z,15.85
2023-04-10T05:24:01.395Z,15.10
2023-04-10T05:26:15.023Z,15.60
2023-04-10T05:31:12.210Z,15.68
2023-04-10T05:33:30.611Z,14.02
2023-04-10T05:36:11.658Z,14.82
2023-04-10T05:38:37.202Z,15.82
2023-04-10T05:41:16.342Z,15.63
2023-04-10T05:43:45.210Z,15.02
2023-04-10T05:45:59.148Z,15.57
2023-04-10T05:48:22.232Z,14.15
2023-04-10T05:50:48.118Z,14.05
2023-04-10T05:53:09.937Z,14.77
2023-04-10T05:55:35.232Z,14.68
2023-04-10T05:57:58.862Z,16.55
2023-04-10T06:00:24.011Z,14.93
2023-04-10T06:03:04.685Z,15.48
2023-04-10T06:05:11.428Z,15.50
2023-04-10T06:07:20.143Z,14.95
2023-04-10T06:09:25.185Z,14.43
2023-04-10T06:11:30.224Z,13.88
2023-04-10T06:13:37.085Z,14.65
2023-04-10T06:15:42.177Z,13.68
2023-04-10T06:17:47.649Z,15.60
2023-04-10T06:19:53.347Z,14.25
2023-04-10T06:21:58.264Z,16.35
2023-04-10T06:24:05.846Z,14.50
2023-04-10T06:26:10.817Z,16.52
2023-04-10T06:28:15.746Z,14.07
2023-04-10T06:30:23.896Z,14.82
2023-04-10T06:32:29.635Z,14.88
2023-04-10T06:34:34.567Z,14.75
2023-04-10T06:36:42.736Z,15.05
2023-04-10T06:38:47.636Z,16.40
2023-04-10T06:40:55.438Z,16.92
2023-04-10T06:43:00.563Z,16.35
2023-04-10T06:45:12.857Z,15.50
2023-04-10T06:47:18.509Z,16.25
2023-04-10T06:49:24.416Z,15.25
2023-04-10T06:51:29.464Z,14.90
2023-04-10T06:53:34.324Z,14.02
2023-04-10T06:55:39.551Z,16.25
2023-04-10T06:57:46.992Z,16.27
2023-04-10T06:59:51.934Z,14.27
2023-04-10T07:01:56.955Z,17.17
2023-04-10T07:04:01.876Z,15.48
2023-04-10T07:06:08.287Z,16.27
2023-04-10T07:08:13.240Z,15.35
2023-04-10T07:10:18.095Z,18.50
2023-04-10T07:12:23.108Z,17.08
2023-04-10T07:14:30.552Z,16.10
2023-04-10T07:16:35.675Z,16.23
2023-04-10T07:18:41.498Z,15.95
2023-04-10T07:20:47.053Z,15.20
2023-04-10T07:22:51.912Z,13.77
2023-04-10T07:24:56.824Z,13.85
2023-04-10T07:27:02.123Z,13.20
2023-04-10T07:29:07.067Z,13.48
2023-04-10T07:31:14.980Z,12.15
2023-04-10T07:33:21.358Z,13.10
2023-04-10T07:35:27.224Z,12.85
2023-04-10T07:37:45.519Z,13.65
2023-04-10T07:39:50.520Z,13.35
2023-04-10T07:41:56.629Z,12.82
2023-04-10T07:44:01.766Z,13.52
2023-04-10T07:48:11.422Z,13.73
2023-04-10T07:50:16.486Z,12.80
2023-04-10T07:52:21.428Z,12.23
2023-04-10T07:54:29.019Z,12.27
2023-04-10T07:56:34.017Z,12.48
2023-04-10T07:58:39.985Z,13.13
2023-04-10T08:00:44.922Z,12.63
2023-04-10T08:02:49.986Z,12.07
2023-04-10T08:04:55.133Z,13.27
2023-04-10T08:07:00.428Z,12.60
2023-04-10T08:09:05.645Z,12.25
2023-04-10T08:13:31.216Z,11.27
2023-04-10T08:15:36.355Z,11.10
2023-04-10T08:17:41.333Z,11.13
2023-04-10T08:19:46.341Z,11.13
2023-04-10T08:21:51.301Z,11.00
2023-04-10T08:23:57.132Z,10.80
2023-04-10T08:26:02.176Z,10.25
2023-04-10T08:30:16.823Z,9.98
2023-04-10T08:32:21.795Z,9.95
2023-04-10T08:34:26.819Z,9.95
2023-04-10T08:36:32.538Z,9.50
2023-04-10T08:38:37.506Z,8.98
2023-04-10T08:40:42.984Z,9.48
2023-04-10T08:42:47.880Z,10.02
2023-04-10T08:44:55.786Z,9.68
2023-04-10T08:47:02.861Z,9.80
2023-04-10T08:49:08.641Z,9.10
2023-04-10T08:51:20.089Z,8.75
2023-04-10T08:53:27.661Z,9.48
2023-04-10T08:55:32.691Z,8.98
2023-04-10T08:57:45.188Z,9.02
2023-04-10T08:59:55.878Z,9.48
2023-04-10T09:02:01.673Z,8.75
2023-04-10T09:04:07.613Z,8.18
2023-04-10T09:06:12.576Z,8.65
2023-04-10T09:08:18.296Z,7.57
2023-04-10T09:10:23.206Z,7.18
2023-04-10T09:12:28.113Z,8.70
2023-04-10T09:14:34.800Z,7.35
2023-04-10T09:16:42.319Z,8.30
2023-04-10T09:18:49.060Z,8.07
2023-04-10T09:20:54.322Z,8.05
2023-04-10T09:22:59.429Z,7.05
2023-04-10T09:25:05.918Z,7.43
2023-04-10T09:27:11.235Z,8.13
2023-04-10T09:29:17.113Z,6.78
2023-04-10T09:31:34.774Z,7.07
2023-04-10T09:33:42.450Z,7.20
2023-04-10T09:35:47.410Z,6.75
2023-04-10T09:37:52.377Z,6.30
2023-04-10T09:39:57.273Z,7.75
2023-04-10T09:42:02.304Z,7.20
2023-04-10T09:44:12.055Z,7.60
2023-04-10T09:46:29.427Z,6.72
2023-04-10T09:48:34.406Z,5.85
2023-04-10T09:50:43.692Z,7.22
2023-04-10T09:52:48.576Z,6.75
2023-04-10T09:54:53.543Z,6.30
2023-04-10T09:56:59.247Z,6.80
2023-04-10T09:59:05.065Z,5.93
2023-04-10T10:01:10.544Z,7.03
2023-04-10T10:03:17.001Z,6.22
2023-04-10T10:05:23.173Z,6.30
2023-04-10T10:07:32.425Z,6.75
2023-04-10T10:09:39.806Z,7.05
2023-04-10T10:11:44.749Z,7.15
2023-04-10T10:13:54.062Z,6.47
2023-04-10T10:16:07.706Z,6.97
2023-04-10T10:18:20.994Z,6.40
2023-04-10T10:20:29.359Z,6.05
2023-04-10T10:22:37.996Z,5.68
2023-04-10T10:24:48.828Z,5.47
2023-04-10T10:26:54.921Z,5.65
2023-04-10T10:29:02.081Z,5.25
2023-04-10T10:31:08.340Z,4.60
2023-04-10T10:33:15.453Z,5.13
2023-04-10T10:35:22.031Z,4.45
2023-04-10T10:37:29.500Z,4.55
2023-04-10T10:39:48.022Z,5.55
2023-04-10T10:42:01.884Z,5.82
2023-04-10T10:44:16.401Z,5.88
2023-04-10T10:46:27.480Z,5.03
2023-04-10T10:48:32.820Z,4.95
2023-04-10T10:50:57.590Z,5.43
2023-04-10T10:53:02.560Z,4.70
2023-04-10T10:55:37.911Z,5.28
2023-04-10T10:57:49.594Z,5.45
2023-04-10T10:59:58.632Z,5.20
2023-04-10T11:02:17.488Z,5.38
2023-04-10T11:04:46.615Z,4.68
2023-04-10T11:06:54.111Z,4.47
2023-04-10T11:08:58.996Z,4.68
2023-04-10T11:11:08.080Z,4.90
2023-04-10T11:13:20.899Z,4.43
2023-04-10T11:15:27.342Z,4.68
2023-04-10T11:17:52.114Z,4.32
2023-04-10T11:20:02.598Z,5.22
2023-04-10T11:22:10.831Z,4.03
2023-04-10T11:24:15.937Z,4.07
2023-04-10T11:26:44.137Z,4.15
2023-04-10T11:28:49.258Z,3.35
2023-04-10T11:30:54.323Z,3.60
2023-04-10T11:33:00.645Z,3.38
2023-04-10T11:35:05.803Z,4.20
2023-04-10T11:39:18.080Z,3.50
2023-04-10T11:41:22.978Z,4.80
2023-04-10T11:43:30.446Z,4.68
2023-04-10T11:45:35.789Z,4.30
2023-04-10T11:47:41.075Z,3.83
2023-04-10T11:49:46.159Z,4.00
2023-04-10T11:51:52.364Z,4.82
2023-04-10T11:54:08.653Z,3.55
2023-04-10T11:56:21.329Z,4.03
2023-04-10T11:58:30.710Z,3.85
2023-04-10T12:00:35.733Z,3.67
2023-04-10T12:02:54.035Z,3.38
2023-04-10T12:05:01.273Z,4.03
2023-04-10T12:07:06.748Z,4.05
2023-04-10T12:09:17.669Z,3.65
2023-04-10T12:11:23.532Z,3.50
2023-04-10T12:13:31.837Z,3.67
2023-04-10T12:15:38.886Z,4.00
2023-04-10T12:17:45.246Z,4.00
2023-04-10T12:19:50.275Z,4.00
2023-04-10T12:21:55.609Z,4.38
2023-04-10T12:24:00.675Z,3.85
2023-04-10T12:26:14.134Z,4.03
2023-04-10T12:28:22.596Z,4.03
2023-04-10T12:30:30.194Z,3.65
2023-04-10T12:32:35.153Z,4.18
2023-04-10T12:34:40.116Z,3.97
2023-04-10T12:36:45.112Z,3.80
2023-04-10T12:38:50.066Z,3.33
2023-04-10T12:43:06.169Z,3.90
2023-04-10T12:45:14.766Z,3.33
2023-04-10T12:47:22.372Z,3.72
2023-04-10T12:49:27.391Z,3.22
2023-04-10T12:51:49.336Z,3.22
2023-04-10T12:53:54.234Z,2.72
2023-04-10T12:56:06.947Z,4.07
2023-04-10T12:58:23.014Z,4.32
2023-04-10T13:00:28.671Z,3.90
2023-04-10T13:02:36.421Z,3.92
2023-04-10T13:04:41.706Z,3.80
2023-04-10T13:08:53.228Z,4.40
2023-04-10T13:11:03.034Z,4.05
2023-04-10T13:13:08.286Z,3.40
2023-04-10T13:17:19.137Z,4.10
2023-04-10T13:19:26.679Z,4.20
2023-04-10T13:21:31.741Z,3.65
2023-04-10T13:25:43.560Z,3.80
2023-04-10T13:27:48.533Z,3.33
2023-04-10T13:29:53.392Z,3.58
2023-04-10T13:32:00.442Z,3.72
2023-04-10T13:34:05.345Z,3.55
2023-04-10T13:36:13.174Z,3.33
2023-04-10T13:38:20.010Z,3.80
2023-04-10T13:40:26.499Z,3.40
2023-04-10T13:44:36.266Z,3.22
2023-04-10T13:46:41.190Z,2.90
2023-04-10T13:48:46.277Z,3.20
2023-04-10T13:50:51.228Z,3.30
2023-04-10T13:52:58.790Z,2.97
2023-04-10T13:55:04.576Z,3.40
2023-04-10T13:57:09.490Z,3.50
2023-04-10T13:59:17.185Z,2.95
2023-04-10T14:01:22.159Z,2.72
2023-04-10T14:03:27.202Z,3.47
2023-04-10T14:07:36.942Z,3.15
2023-04-10T14:09:44.462Z,3.63
2023-04-10T14:11:49.493Z,3.60
2023-04-10T14:15:59.144Z,3.75
2023-04-10T14:18:04.211Z,3.17
2023-04-10T14:22:16.700Z,3.40
2023-04-10T14:26:29.154Z,2.70
2023-04-10T14:28:34.507Z,3.25
2023-04-10T14:30:39.508Z,3.10
2023-04-10T14:32:44.608Z,3.38
2023-04-10T14:36:58.910Z,2.67
2023-04-10T14:39:04.464Z,3.13
2023-04-10T14:41:10.287Z,3.15
2023-04-10T14:43:19.621Z,3.80
2023-04-10T14:45:26.036Z,3.05
2023-04-10T14:47:32.235Z,3.70
2023-04-10T14:49:39.300Z,3.30
2023-04-10T14:51:48.558Z,3.42
2023-04-10T14:53:53.707Z,3.28
2023-04-10T14:55:58.790Z,3.38
2023-04-10T14:58:04.083Z,3.53
2023-04-10T15:00:13.250Z,3.28
2023-04-10T15:02:18.283Z,3.13
2023-04-10T15:06:28.457Z,3.95
2023-04-10T15:08:33.511Z,3.30
2023-04-10T15:10:38.352Z,3.92
2023-04-10T15:12:43.354Z,3.60
2023-04-10T15:14:48.328Z,3.88
2023-04-10T15:16:56.043Z,3.40
2023-04-10T15:19:01.136Z,3.78
2023-04-10T15:23:10.981Z,3.30
2023-04-10T15:27:22.915Z,3.65
2023-04-10T15:29:28.769Z,3.40
2023-04-10T15:31:33.831Z,3.63
2023-04-10T15:35:51.474Z,3.65
2023-04-10T15:37:56.407Z,3.50
2023-04-10T15:40:01.728Z,3.72
2023-04-10T15:42:07.727Z,3.28
2023-04-10T15:44:18.886Z,3.97
2023-04-10T15:46:25.174Z,3.35
2023-04-10T15:48:30.104Z,3.55
2023-04-10T15:50:40.531Z,3.17
2023-04-10T15:52:47.975Z,3.78
2023-04-10T15:55:02.611Z,3.55
2023-04-10T15:57:07.898Z,4.00
2023-04-10T15:59:12.882Z,3.97
2023-04-10T16:01:17.816Z,3.17
2023-04-10T16:05:33.197Z,4.32
2023-04-10T16:07:43.123Z,4.05
2023-04-10T16:09:48.043Z,3.58
2023-04-10T16:11:53.579Z,4.50
2023-04-10T16:13:58.549Z,4.10
2023-04-10T16:16:04.751Z,3.60
2023-04-10T16:18:10.591Z,4.05
2023-04-10T16:20:16.181Z,3.45
2023-04-10T16:22:21.077Z,3.28
2023-04-10T16:24:28.627Z,3.42
2023-04-10T16:26:33.665Z,3.30
2023-04-10T16:28:38.588Z,3.47
2023-04-10T16:30:43.523Z,3.92
2023-04-10T16:32:48.788Z,3.83
2023-04-10T16:34:53.796Z,3.65
2023-04-10T16:36:58.687Z,3.53
2023-04-10T16:39:03.665Z,3.53
2023-04-10T16:41:12.718Z,3.50
2023-04-10T16:43:17.699Z,3.50
2023-04-10T16:47:27.695Z,3.65
2023-04-10T16:49:32.730Z,3.33
2023-04-10T16:51:37.650Z,4.00
2023-04-10T16:53:42.760Z,4.28
2023-04-10T16:55:48.041Z,3.65
2023-04-10T16:57:55.613Z,3.85
2023-04-10T17:00:01.088Z,3.40
2023-04-10T17:02:06.197Z,3.63
2023-04-10T17:06:16.878Z,3.45
2023-04-10T17:08:21.753Z,3.80
2023-04-10T17:10:27.855Z,3.53
2023-04-10T17:12:32.822Z,3.42
2023-04-10T17:14:40.400Z,3.97
2023-04-10T17:16:46.075Z,3.70
2023-04-10T17:18:51.095Z,3.58
2023-04-10T17:20:56.024Z,3.50
2023-04-10T17:23:01.026Z,4.22
2023-04-10T17:25:05.990Z,4.35
2023-04-10T17:27:11.022Z,4.40
2023-04-10T17:29:16.041Z,4.07
2023-04-10T17:31:23.604Z,4.35
2023-04-10T17:33:28.609Z,4.40
2023-04-10T17:35:33.598Z,5.30
2023-04-10T17:37:38.482Z,4.25
2023-04-10T17:39:43.362Z,4.20
2023-04-10T17:41:48.312Z,4.35
2023-04-10T17:43:53.279Z,4.35
2023-04-10T17:45:58.145Z,3.70
2023-04-10T17:48:06.129Z,4.32
2023-04-10T17:50:12.693Z,4.22
2023-04-10T17:52:17.577Z,4.50
2023-04-10T17:54:22.445Z,3.95
2023-04-10T17:56:27.451Z,4.55
2023-04-10T17:58:32.472Z,4.22
2023-04-10T18:00:37.605Z,3.72
2023-04-10T18:02:42.835Z,4.63
2023-04-10T18:04:50.461Z,3.92
2023-04-10T18:06:55.709Z,4.07
2023-04-10T18:09:01.291Z,4.32
2023-04-10T18:11:09.428Z,4.20
2023-04-10T18:13:14.506Z,4.10
2023-04-10T18:15:22.085Z,3.83
2023-04-10T18:17:29.647Z,4.30
2023-04-10T18:19:35.068Z,4.15
2023-04-10T18:21:44.110Z,4.35
2023-04-10T18:23:49.004Z,4.10
2023-04-10T18:25:57.792Z,4.30
2023-04-10T18:28:14.496Z,4.22
2023-04-10T18:30:21.004Z,3.97
2023-04-10T18:32:26.100Z,3.70
2023-04-10T18:34:31.545Z,4.75
2023-04-10T18:36:36.455Z,4.90
2023-04-10T18:38:44.298Z,4.82
2023-04-10T18:40:49.336Z,4.78
2023-04-10T18:42:54.250Z,4.13
2023-04-10T18:44:59.214Z,4.20
2023-04-10T18:47:05.008Z,4.68
2023-04-10T18:49:10.441Z,4.57
2023-04-10T18:51:15.655Z,4.38
2023-04-10T18:55:28.028Z,4.50
2023-04-10T18:57:33.126Z,4.50
2023-04-10T18:59:40.308Z,3.92
2023-04-10T19:01:45.521Z,4.22
2023-04-10T19:03:52.605Z,3.88
2023-04-10T19:05:58.095Z,4.15
2023-04-10T19:08:04.923Z,4.18
2023-04-10T19:10:11.572Z,4.22
2023-04-10T19:12:19.231Z,4.05
2023-04-10T19:14:24.120Z,4.40
2023-04-10T19:16:29.301Z,4.35
2023-04-10T19:20:49.440Z,4.03
2023-04-10T19:22:56.212Z,4.30
2023-04-10T19:25:01.330Z,4.40
2023-04-10T19:27:06.648Z,3.97
2023-04-10T19:31:18.874Z,3.95
2023-04-10T19:33:24.410Z,4.22
2023-04-10T19:35:29.589Z,4.85
2023-04-10T19:37:34.529Z,4.57
2023-04-10T19:39:39.394Z,4.35
2023-04-10T19:41:44.866Z,4.60
2023-04-10T19:43:49.814Z,4.15
2023-04-10T19:45:59.994Z,4.50
2023-04-10T19:48:05.406Z,4.90
2023-04-10T19:50:11.504Z,4.63
2023-04-10T19:52:16.509Z,4.70
2023-04-10T19:54:21.522Z,4.80
2023-04-10T19:56:27.138Z,4.38
2023-04-10T19:58:40.448Z,4.25
2023-04-10T20:00:46.294Z,4.30
2023-04-10T20:02:54.131Z,4.45
2023-04-10T20:04:59.299Z,4.63
2023-04-10T20:07:04.324Z,4.55
2023-04-10T20:11:15.183Z,4.25
2023-04-10T20:13:20.053Z,4.50
2023-04-10T20:15:25.020Z,5.22
2023-04-10T20:17:30.253Z,4.97
2023-04-10T20:19:38.276Z,4.32
2023-04-10T20:21:43.262Z,4.95
2023-04-10T20:23:48.253Z,4.97
2023-04-10T20:25:53.121Z,5.28
2023-04-10T20:27:58.311Z,4.93
2023-04-10T20:30:03.359Z,4.40
2023-04-10T20:32:09.807Z,5.05
2023-04-10T20:34:14.774Z,5.07
2023-04-10T20:36:22.470Z,4.82
2023-04-10T20:38:27.371Z,4.78
2023-04-10T20:40:32.238Z,4.95
2023-04-10T20:42:37.129Z,5.97
2023-04-10T20:44:42.100Z,5.18
2023-04-10T20:46:47.059Z,5.07
2023-04-10T20:48:52.108Z,6.25
2023-04-10T20:50:57.120Z,5.50
2023-04-10T20:53:04.691Z,5.55
2023-04-10T20:55:10.631Z,5.07
2023-04-10T20:57:23.905Z,5.07
2023-04-10T20:59:28.892Z,5.85
2023-04-10T21:01:33.844Z,5.63
2023-04-10T21:03:38.817Z,4.35
2023-04-10T21:05:44.393Z,5.10
2023-04-10T21:07:49.342Z,5.45
2023-04-10T21:09:57.042Z,5.38
2023-04-10T21:12:02.012Z,4.40
2023-04-10T21:14:07.025Z,4.88
2023-04-10T21:16:12.232Z,5.15
2023-04-10T21:18:17.277Z,4.95
2023-04-10T21:20:22.256Z,5.30
2023-04-10T21:22:29.194Z,5.30
2023-04-10T21:24:34.500Z,5.15
2023-04-10T21:26:41.988Z,5.07
2023-04-10T21:28:46.992Z,5.00
2023-04-10T21:30:51.900Z,5.22
2023-04-10T21:32:56.946Z,5.22
2023-04-10T21:37:07.200Z,5.05
2023-04-10T21:39:12.279Z,5.40
2023-04-10T21:41:17.174Z,4.95
2023-04-10T21:43:25.180Z,5.70
2023-04-10T21:45:30.140Z,5.15
2023-04-10T21:47:35.075Z,4.78
2023-04-10T21:49:39.984Z,5.60
2023-04-10T21:51:44.963Z,5.00
2023-04-10T21:53:50.146Z,5.78
2023-04-10T21:58:00.425Z,4.88
2023-04-10T22:00:09.766Z,4.50
2023-04-10T22:02:14.729Z,4.57
2023-04-10T22:04:19.837Z,4.70
2023-04-10T22:08:29.939Z,5.53
2023-04-10T22:10:34.820Z,5.00
2023-04-10T22:12:40.244Z,5.47
2023-04-10T22:14:46.352Z,5.30
2023-04-10T22:16:53.850Z,4.90
2023-04-10T22:18:58.963Z,5.40
2023-04-10T22:21:04.087Z,4.95
2023-04-10T22:23:09.123Z,4.65
2023-04-10T22:25:14.091Z,4.72
2023-04-10T22:27:19.004Z,5.18
2023-04-10T22:29:23.927Z,5.10
2023-04-10T22:31:28.879Z,4.93
2023-04-10T22:33:38.125Z,5.03
2023-04-10T22:35:43.085Z,4.65
2023-04-10T22:37:48.065Z,5.00
2023-04-10T22:39:53.106Z,5.13
2023-04-10T22:41:58.252Z,4.82
2023-04-10T22:44:03.310Z,5.20
2023-04-10T22:46:08.630Z,4.80
2023-04-10T22:48:13.553Z,4.50
2023-04-10T22:50:21.382Z,5.05
2023-04-10T22:52:26.240Z,4.78
2023-04-10T22:54:31.287Z,4.43
2023-04-10T22:56:36.208Z,5.20
2023-04-10T22:58:42.640Z,4.88
2023-04-10T23:00:47.538Z,4.65
2023-04-10T23:02:52.572Z,5.32
2023-04-10T23:04:57.913Z,5.35
2023-04-10T23:07:05.501Z,5.18
2023-04-10T23:09:10.625Z,5.18
2023-04-10T23:11:15.520Z,5.13
2023-04-10T23:13:20.557Z,5.13
2023-04-10T23:15:25.502Z,6.45
2023-04-10T23:17:30.505Z,5.32
2023-04-10T23:19:35.437Z,4.93
2023-04-10T23:21:40.773Z,4.60
2023-04-10T23:23:48.520Z,4.93
2023-04-10T23:26:00.065Z,4.80
2023-04-10T23:28:05.039Z,5.57
2023-04-10T23:32:15.264Z,5.25
2023-04-10T23:34:22.259Z,4.63
2023-04-10T23:36:27.394Z,5.13
2023-04-10T23:40:39.608Z,5.20
2023-04-10T23:42:44.570Z,5.10
2023-04-10T23:44:49.623Z,5.20
2023-04-10T23:46:54.718Z,4.40
2023-04-10T23:51:08.445Z,4.78
2023-04-10T23:53:14.705Z,4.88
2023-04-10T23:55:20.222Z,4.72
2023-04-10T23:59:32.319Z,4.93
